Data for 11/10/2010

Time Sea-Level Adjusted Pressure Absolute Pressure Temperature Relative Humidity Dew Point   
(mb) (inHg) (mb) (inHg) (C) (F) (%) (C) (F)
00:05 1012 29.88 842 24.86 -5.4 22.3 84 -7.7 18.1
00:10 1012 29.88 842 24.86 -5.3 22.5 84 -7.6 18.4
00:15 1012 29.88 842 24.86 -5.3 22.5 84 -7.6 18.3
00:20 1012 29.88 842 24.86 -5.4 22.2 84 -7.7 18.1
00:25 1012 29.88 841 24.83 -5.5 22 84 -7.8 17.9
00:30 1012 29.88 842 24.86 -5.6 21.9 84 -7.9 17.7
00:35 1012 29.88 841 24.83 -5.6 22 83 -8 17.6
00:40 1012 29.88 842 24.86 -5.5 22 84 -7.9 17.8
00:45 1012 29.88 842 24.86 -5.6 21.9 84 -7.9 17.7
00:50 1012 29.88 842 24.86 -5.6 21.8 83 -8 17.6
00:55 1012 29.88 842 24.86 -5.8 21.6 84 -8.1 17.4
01:00 1012 29.88 842 24.86 -5.9 21.4 84 -8.2 17.2
01:05 1012 29.88 842 24.86 -6.1 21.1 84 -8.4 17
01:10 1012 29.88 842 24.86 -6.3 20.7 85 -8.5 16.8
01:15 1012 29.88 842 24.86 -6.4 20.5 85 -8.5 16.6
01:20 1012 29.88 842 24.86 -6.5 20.3 84 -8.7 16.3
01:25 1012 29.88 842 24.86 -6.5 20.3 84 -8.7 16.3
01:30 1012 29.88 842 24.86 -6.5 20.3 84 -8.7 16.3
01:35 1012 29.88 842 24.86 -6.4 20.6 83 -8.8 16.2
01:40 1012 29.88 842 24.86 -6.3 20.7 83 -8.7 16.3
01:45 1012 29.88 842 24.86 -6.5 20.3 84 -8.8 16.1
01:50 1012 29.88 842 24.86 -6.6 20.2 84 -8.9 16
01:55 1012 29.88 841 24.83 -6.6 20.1 84 -8.9 16.1
02:00 1012 29.88 841 24.83 -6.3 20.7 83 -8.8 16.2
02:05 1012 29.88 842 24.86 -6.2 20.8 84 -8.5 16.6
02:10 1012 29.88 842 24.86 -6.2 20.9 84 -8.4 16.9
02:15 1012 29.88 842 24.86 -6.2 20.9 84 -8.4 16.8
02:20 1012 29.88 842 24.86 -6.2 20.9 83 -8.5 16.6
02:25 1012 29.88 842 24.86 -6.1 21 83 -8.5 16.7
02:30 1012 29.88 842 24.86 -6.3 20.7 84 -8.6 16.5
02:35 1012 29.88 842 24.86 -6.4 20.4 84 -8.8 16.2
02:40 1012 29.88 842 24.86 -6.6 20.1 84 -8.9 16
02:45 1013 29.91 842 24.86 -6.7 20 83 -9.1 15.6
02:50 1013 29.91 842 24.86 -6.7 19.9 83 -9.2 15.4
02:55 1013 29.91 842 24.86 -6.7 19.9 82 -9.3 15.3
03:00 1013 29.91 842 24.86 -6.6 20 82 -9.3 15.3
03:05 1013 29.91 842 24.86 -6.5 20.3 81 -9.3 15.3
03:10 1013 29.91 842 24.86 -6 21.2 78 -9.2 15.4
03:15 1013 29.91 842 24.86 -5.8 21.6 79 -8.9 16
03:20 1013 29.91 842 24.86 -6.1 21.1 80 -9 15.7
03:25 1013 29.91 842 24.86 -6.1 21 80 -9 15.8
03:30 1013 29.91 842 24.86 -6.2 20.8 80 -9.1 15.6
03:35 1013 29.91 842 24.86 -6.4 20.5 81 -9.1 15.5
03:40 1013 29.91 842 24.86 -6.5 20.3 81 -9.2 15.4
03:45 1013 29.91 842 24.86 -6.3 20.6 80 -9.3 15.3
03:50 1013 29.91 842 24.86 -6.3 20.6 80 -9.2 15.4
03:55 1013 29.91 842 24.86 -6.5 20.3 80 -9.3 15.2
04:00 1013 29.91 842 24.86 -6.4 20.5 79 -9.4 15
04:05 1013 29.91 842 24.86 -6.3 20.7 79 -9.4 15.1
04:10 1013 29.91 842 24.86 -6.2 20.8 79 -9.3 15.2
04:15 1013 29.91 842 24.86 -6.3 20.7 79 -9.3 15.2
04:20 1013 29.91 842 24.86 -6.3 20.6 79 -9.4 15.2
04:25 1013 29.91 842 24.86 -6.4 20.5 80 -9.3 15.3
04:30 1013 29.91 842 24.86 -6.6 20.1 80 -9.5 14.9
04:35 1013 29.91 842 24.86 -6.6 20.2 80 -9.5 14.9
04:40 1013 29.91 842 24.86 -6.6 20.1 80 -9.5 15
04:45 1013 29.91 842 24.86 -6.8 19.7 81 -9.6 14.7
04:50 1013 29.91 842 24.86 -6.7 20 81 -9.5 15
04:55 1013 29.91 842 24.86 -6.5 20.3 80 -9.4 15.1
05:00 1013 29.91 842 24.86 -6.3 20.6 79 -9.3 15.2
05:05 1013 29.91 842 24.86 -6 21.3 79 -9.1 15.6
05:10 1013 29.91 842 24.86 -6 21.2 78 -9.2 15.4
05:15 1013 29.91 842 24.86 -6.1 21.1 79 -9.1 15.7
05:20 1013 29.91 842 24.86 -6 21.3 79 -9 15.8
05:25 1013 29.91 842 24.86 -6 21.1 80 -8.9 16
05:30 1013 29.91 842 24.86 -6.1 20.9 82 -8.8 16.1
05:35 1013 29.91 842 24.86 -6.1 21.1 82 -8.7 16.3
05:40 1013 29.91 842 24.86 -6 21.1 81 -8.7 16.3
05:45 1013 29.91 842 24.86 -5.8 21.6 80 -8.8 16.2
05:50 1013 29.91 842 24.86 -5.7 21.7 80 -8.6 16.4
05:55 1013 29.91 842 24.86 -5.8 21.6 80 -8.6 16.4
06:00 1013 29.91 842 24.86 -5.8 21.6 81 -8.6 16.5
06:05 1013 29.91 842 24.86 -5.8 21.6 81 -8.5 16.7
06:10 1013 29.91 842 24.86 -5.7 21.7 80 -8.6 16.6
06:15 1013 29.91 842 24.86 -5.6 22 80 -8.5 16.7
06:20 1013 29.91 842 24.86 -5.5 22.1 81 -8.3 17
06:25 1013 29.91 842 24.86 -5.5 22.1 81 -8.4 17
06:30 1013 29.91 842 24.86 -5.5 22.1 81 -8.3 17.1
06:35 1013 29.91 842 24.86 -5.6 21.9 81 -8.3 17
06:40 1013 29.91 842 24.86 -5.6 21.9 79 -8.8 16.2
06:45 1013 29.91 842 24.86 -5.1 22.8 76 -8.7 16.4
06:50 1013 29.91 842 24.86 -4.9 23.1 75 -8.7 16.3
06:55 1013 29.91 843 24.89 -4.9 23.1 76 -8.5 16.8
07:00 1013 29.91 843 24.89 -4.9 23.1 78 -8.3 17.1
07:05 1013 29.91 843 24.89 -4.9 23.1 78 -8.2 17.2
07:10 1013 29.91 843 24.89 -4.9 23.2 79 -8 17.5
07:15 1013 29.91 843 24.89 -5 23 81 -7.8 17.9
07:20 1013 29.91 843 24.89 -5.2 22.7 82 -7.8 17.9
07:25 1014 29.94 843 24.89 -5.1 22.7 82 -7.7 18.1
07:30 1014 29.94 843 24.89 -5.1 22.9 81 -7.8 17.9
07:35 1014 29.94 843 24.89 -5 22.9 78 -8.2 17.2
07:40 1014 29.94 843 24.89 -4.9 23.1 80 -7.9 17.8
07:45 1014 29.94 843 24.89 -5 23.1 82 -7.6 18.4
07:50 1014 29.94 843 24.89 -5.1 22.8 83 -7.6 18.3
07:55 1014 29.94 843 24.89 -5.2 22.7 83 -7.6 18.3
08:00 1014 29.94 843 24.89 -5.1 22.9 80 -8.1 17.5
08:05 1014 29.94 843 24.89 -4.9 23.2 81 -7.7 18.1
08:10 1014 29.94 843 24.89 -4.9 23.2 79 -8 17.6
08:15 1014 29.94 843 24.89 -4.7 23.5 78 -8 17.6
08:20 1014 29.94 843 24.89 -4.5 24 77 -7.9 17.7
08:25 1014 29.94 844 24.92 -4.4 24.1 76 -8 17.7
08:30 1014 29.94 844 24.92 -4.4 24.1 80 -7.4 18.7
08:35 1014 29.94 844 24.92 -4.5 23.9 81 -7.2 19
08:40 1014 29.94 844 24.92 -4.4 24.1 82 -7 19.3
08:45 1014 29.94 844 24.92 -4.4 24.2 82 -7 19.4
08:50 1014 29.94 844 24.92 -4.3 24.2 78 -7.7 18.2
08:55 1014 29.94 844 24.92 -4.2 24.4 77 -7.7 18.2
09:00 1015 29.97 844 24.92 -4.1 24.6 78 -7.4 18.6
09:05 1015 29.97 844 24.92 -3.9 24.9 77 -7.3 18.8
09:10 1015 29.97 844 24.92 -3.9 24.9 76 -7.6 18.2
09:15 1015 29.97 844 24.92 -3.7 25.3 76 -7.3 18.8
09:20 1015 29.97 844 24.92 -2.8 27 72 -7.1 19.2
09:25 1015 29.97 844 24.92 -2.2 28 69 -7.1 19.3
09:30 1015 29.97 844 24.92 -2 28.5 68 -7.1 19.2
09:35 1015 29.97 844 24.92 -1.5 29.3 67 -6.9 19.6
09:40 1015 29.97 844 24.92 -1.1 30 66 -6.7 19.9
09:45 1015 29.97 844 24.92 -0.7 30.7 65 -6.5 20.3
09:50 1015 29.97 844 24.92 -0.8 30.6 65 -6.6 20.2
09:55 1015 29.97 844 24.92 -0.3 31.5 61 -6.9 19.6
10:00 1015 29.97 844 24.92 0.1 32.2 61 -6.6 20.2
10:05 1015 29.97 844 24.92 -0.6 30.9 65 -6.4 20.6
10:10 1015 29.97 844 24.92 -0.5 31 63 -6.7 20
10:15 1015 29.97 844 24.92 -0.5 31.1 63 -6.8 19.8
10:20 1015 29.97 844 24.92 -0.3 31.4 62 -6.8 19.7
10:25 1015 29.97 844 24.92 -0.5 31.2 64 -6.5 20.3
10:30 1015 29.97 844 24.92 -0.7 30.7 62 -7.1 19.2
10:35 1015 29.97 845 24.95 -0.8 30.6 63 -6.9 19.5
10:40 1015 29.97 845 24.95 -0.5 31.2 60 -7.2 19
10:45 1015 29.97 845 24.95 -0.4 31.3 61 -7.1 19.2
10:50 1015 29.97 845 24.95 -0.1 31.9 59 -7.1 19.2
10:55 1015 29.97 845 24.95 -0.2 31.7 61 -6.7 19.9
11:00 1015 29.97 845 24.95 -0.1 31.7 59 -7.1 19.1
11:05 1015 29.97 845 24.95 0.2 32.3 56 -7.5 18.4
11:10 1015 29.97 845 24.95 0.1 32.1 58 -7.3 18.9
11:15 1016 30 845 24.95 -0.2 31.6 57 -7.6 18.2
11:20 1016 30 845 24.95 -0.4 31.3 58 -7.7 18.2
11:25 1016 30 845 24.95 -0.7 30.7 59 -7.9 17.9
11:30 1016 30 845 24.95 -0.7 30.7 59 -7.7 18.2
11:35 1016 30 845 24.95 -0.9 30.4 59 -7.9 17.9
11:40 1016 30 845 24.95 -0.7 30.7 59 -7.8 18
11:45 1016 30 845 24.95 -1 30.1 60 -7.9 17.8
11:50 1016 30 845 24.95 -1.3 29.6 63 -7.5 18.4
11:55 1016 30 845 24.95 -1.4 29.5 61 -7.9 17.8
12:00 1016 30 845 24.95 -1.6 29 62 -8.1 17.5
12:05 1016 30 845 24.95 -1.3 29.7 62 -7.7 18.1
12:10 1016 30 845 24.95 -1.2 29.8 62 -7.5 18.5
12:15 1016 30 845 24.95 -1.5 29.2 62 -7.8 17.9
12:20 1016 30 845 24.95 -1.9 28.5 65 -7.7 18.1
12:25 1016 30 845 24.95 -1.4 29.5 62 -7.8 18
12:30 1016 30 845 24.95 -1.7 28.9 64 -7.6 18.3
12:35 1016 30 845 24.95 -2 28.5 66 -7.5 18.5
12:40 1016 30 845 24.95 -1.9 28.7 67 -7.2 19
12:45 1016 30 845 24.95 -1.6 29.2 66 -7.1 19.3
12:50 1016 30 845 24.95 -1 30.1 65 -6.7 19.9
12:55 1016 30 845 24.95 -0.8 30.5 65 -6.7 20
13:00 1016 30 845 24.95 -1 30.1 64 -7.1 19.3
13:05 1016 30 845 24.95 -0.9 30.5 64 -6.8 19.7
13:10 1016 30 845 24.95 -1.1 30.1 65 -6.7 19.9
13:15 1016 30 845 24.95 -0.6 31 64 -6.6 20.1
13:20 1016 30 845 24.95 -0.4 31.3 63 -6.6 20
13:25 1016 30 845 24.95 -0.3 31.5 62 -6.7 20
13:30 1016 30 845 24.95 -0.5 31.2 65 -6.1 20.9
13:35 1016 30 845 24.95 -0.5 31 64 -6.5 20.4
13:40 1016 30 845 24.95 -0.5 31 66 -6.2 20.8
13:45 1016 30 845 24.95 -0.6 30.8 66 -6.3 20.6
13:50 1016 30 846 24.98 -0.5 31 65 -6.4 20.5
13:55 1016 30 846 24.98 -0.5 31.1 64 -6.5 20.3
14:00 1016 30 846 24.98 -0.5 31.1 63 -6.8 19.8
14:05 1016 30 846 24.98 -1 30.3 64 -6.9 19.6
14:10 1016 30 846 24.98 -1.1 30 66 -6.8 19.8
14:15 1017 30.03 846 24.98 -1.3 29.7 68 -6.5 20.2
14:20 1017 30.03 846 24.98 -1.1 30 66 -6.7 19.9
14:25 1017 30.03 846 24.98 -0.9 30.4 65 -6.7 20
14:30 1017 30.03 846 24.98 -1.1 29.9 65 -6.9 19.6
14:35 1017 30.03 846 24.98 -1.3 29.7 65 -7 19.4
14:40 1017 30.03 846 24.98 -1.3 29.6 67 -6.7 19.9
14:45 1017 30.03 846 24.98 -1.3 29.7 67 -6.7 20
14:50 1017 30.03 846 24.98 -1.1 30 65 -6.8 19.8
14:55 1017 30.03 846 24.98 -1 30.2 66 -6.4 20.4
15:00 1017 30.03 846 24.98 -0.9 30.4 67 -6.3 20.6
15:05 1017 30.03 846 24.98 -0.8 30.5 67 -6.3 20.7
15:10 1017 30.03 846 24.98 -0.7 30.8 64 -6.7 19.9
15:15 1017 30.03 846 24.98 -0.6 30.9 63 -6.9 19.6
15:20 1017 30.03 846 24.98 -0.6 30.9 62 -6.9 19.6
15:25 1017 30.03 846 24.98 -0.7 30.7 61 -7.2 19
15:30 1017 30.03 846 24.98 -0.7 30.8 63 -6.8 19.7
15:35 1017 30.03 846 24.98 -0.7 30.8 61 -7.3 18.9
15:40 1017 30.03 846 24.98 -0.8 30.6 62 -7.1 19.2
15:45 1017 30.03 847 25.01 -0.7 30.8 62 -7.1 19.2
15:50 1017 30.03 847 25.01 -0.7 30.7 60 -7.5 18.5
15:55 1017 30.03 847 25.01 -0.7 30.7 62 -7.1 19.3
16:00 1017 30.03 847 25.01 -0.8 30.6 61 -7.3 18.9
16:05 1018 30.06 847 25.01 -0.8 30.6 64 -6.8 19.7
16:10 1018 30.06 847 25.01 -0.8 30.5 63 -6.9 19.5
16:15 1018 30.06 847 25.01 -1 30.3 64 -6.9 19.6
16:20 1018 30.06 847 25.01 -1 30.2 64 -7 19.3
16:25 1018 30.06 847 25.01 -1 30.2 65 -6.7 19.9
16:30 1018 30.06 847 25.01 -1.1 30.1 67 -6.5 20.3
16:35 1018 30.06 847 25.01 -1.1 29.9 69 -6.1 21
16:40 1018 30.06 847 25.01 -1.1 30 67 -6.4 20.5
16:45 1018 30.06 847 25.01 -1.2 29.9 68 -6.3 20.6
16:50 1018 30.06 847 25.01 -1.2 29.8 69 -6.1 20.9
16:55 1018 30.06 847 25.01 -1.7 28.9 72 -6.2 20.9
17:00 1018 30.06 847 25.01 -2 28.3 75 -6 21.2
17:05 1018 30.06 848 25.04 -2 28.3 75 -5.9 21.4
17:10 1018 30.06 848 25.04 -2.1 28.3 74 -6.1 21.1
17:15 1018 30.06 848 25.04 -2.1 28.3 75 -5.9 21.4
17:20 1018 30.06 848 25.04 -2.1 28.2 76 -5.8 21.6
17:25 1019 30.09 848 25.04 -2.3 27.8 79 -5.6 22
17:30 1019 30.09 848 25.04 -2.4 27.7 78 -5.7 21.8
17:35 1019 30.09 848 25.04 -2.5 27.5 80 -5.6 22
17:40 1019 30.09 848 25.04 -2.6 27.3 78 -5.9 21.4
17:45 1019 30.09 848 25.04 -2.6 27.3 78 -5.9 21.4
17:50 1019 30.09 848 25.04 -2.7 27.2 78 -6.1 21.1
17:55 1019 30.09 848 25.04 -2.7 27.2 76 -6.3 20.6
18:00 1019 30.09 848 25.04 -2.6 27.2 75 -6.4 20.5
18:05 1019 30.09 848 25.04 -2.6 27.3 75 -6.5 20.3
18:10 1019 30.09 848 25.04 -2.6 27.3 75 -6.4 20.4
18:15 1019 30.09 848 25.04 -2.6 27.3 75 -6.4 20.5
18:20 1019 30.09 848 25.04 -2.6 27.3 76 -6.2 20.8
18:25 1019 30.09 848 25.04 -2.7 27.2 77 -6.1 21
18:30 1019 30.09 848 25.04 -2.7 27.2 75 -6.5 20.3
18:35 1019 30.09 849 25.07 -2.7 27.2 75 -6.5 20.3
18:40 1019 30.09 849 25.07 -2.6 27.3 75 -6.4 20.4
18:45 1020 30.12 849 25.07 -2.6 27.4 77 -6.1 21
18:50 1019 30.09 849 25.07 -2.6 27.4 78 -5.9 21.4
18:55 1020 30.12 849 25.07 -2.7 27.2 79 -5.9 21.4
19:00 1020 30.12 849 25.07 -2.8 27 80 -5.7 21.8
19:05 1020 30.12 849 25.07 -2.8 27 81 -5.5 22
19:10 1020 30.12 849 25.07 -2.9 26.8 82 -5.5 22.1
19:15 1020 30.12 849 25.07 -3 26.6 84 -5.2 22.6
19:20 1020 30.12 849 25.07 -2.9 26.7 84 -5.3 22.5
19:25 1020 30.12 849 25.07 -3.2 26.3 83 -5.6 21.9
19:30 1020 30.12 849 25.07 -3.3 26.1 82 -5.8 21.5
19:35 1020 30.12 849 25.07 -3.3 26 83 -5.8 21.5
19:40 1020 30.12 849 25.07 -3.3 26 84 -5.7 21.7
19:45 1020 30.12 849 25.07 -3.3 26 84 -5.6 21.9
19:50 1020 30.12 849 25.07 -3.3 26 84 -5.6 22
19:55 1020 30.12 849 25.07 -3.4 25.9 83 -5.8 21.6
20:00 1020 30.12 849 25.07 -3.4 25.9 84 -5.7 21.7
20:05 1020 30.12 849 25.07 -3.3 26 83 -5.8 21.5
20:10 1020 30.12 849 25.07 -3.3 26.1 82 -5.8 21.5
20:15 1020 30.12 849 25.07 -3.2 26.2 83 -5.6 21.9
20:20 1020 30.12 849 25.07 -3.2 26.3 84 -5.6 22
20:25 1020 30.12 849 25.07 -3.2 26.3 83 -5.6 21.9
20:30 1020 30.12 850 25.1 -3.2 26.3 83 -5.7 21.7
20:35 1020 30.12 850 25.1 -3.3 26.1 82 -5.9 21.4
20:40 1020 30.12 850 25.1 -3.3 26.1 83 -5.7 21.7
20:45 1021 30.15 850 25.1 -3.3 26 84 -5.7 21.8
20:50 1021 30.15 850 25.1 -3.3 26 84 -5.7 21.7
20:55 1021 30.15 850 25.1 -3.3 26 84 -5.6 21.9
21:00 1021 30.15 850 25.1 -3.4 25.9 85 -5.5 22.1
21:05 1021 30.15 850 25.1 -3.4 25.9 86 -5.5 22.2
21:10 1021 30.15 850 25.1 -3.4 25.9 86 -5.5 22.2
21:15 1021 30.15 850 25.1 -3.3 26.1 85 -5.5 22.1
21:20 1021 30.15 850 25.1 -3.2 26.2 85 -5.4 22.3
21:25 1021 30.15 850 25.1 -3.3 26.1 85 -5.4 22.3
21:30 1021 30.15 850 25.1 -3.3 26.1 85 -5.4 22.2
21:35 1021 30.15 850 25.1 -3.4 25.9 86 -5.4 22.2
21:40 1021 30.15 850 25.1 -3.4 25.8 85 -5.5 22
21:45 1021 30.15 850 25.1 -3.4 25.8 85 -5.7 21.8
21:50 1021 30.15 850 25.1 -3.3 26 85 -5.6 22
21:55 1021 30.15 850 25.1 -3.4 25.9 85 -5.6 22
22:00 1021 30.15 850 25.1 -3.4 25.9 86 -5.5 22.1
22:05 1021 30.15 850 25.1 -3.5 25.7 86 -5.5 22.2
22:10 1021 30.15 850 25.1 -3.6 25.5 87 -5.5 22.1
22:15 1021 30.15 850 25.1 -3.7 25.4 87 -5.5 22.1
22:20 1021 30.15 850 25.1 -3.7 25.4 87 -5.6 21.9
22:25 1021 30.15 850 25.1 -3.7 25.4 86 -5.6 21.8
22:30 1021 30.15 850 25.1 -3.6 25.5 85 -5.8 21.6
22:35 1021 30.15 850 25.1 -3.6 25.5 85 -5.8 21.6
22:40 1021 30.15 850 25.1 -3.6 25.5 86 -5.7 21.7
22:45 1021 30.15 850 25.1 -3.6 25.4 85 -5.8 21.6
22:50 1021 30.15 851 25.13 -3.6 25.5 86 -5.6 21.8
22:55 1021 30.15 851 25.13 -3.7 25.4 87 -5.6 21.9
23:00 1021 30.15 851 25.13 -3.8 25.2 87 -5.6 21.9
23:05 1021 30.15 851 25.13 -3.8 25.2 87 -5.6 22
23:10 1022 30.18 851 25.13 -3.7 25.3 87 -5.6 21.9
23:15 1022 30.18 851 25.13 -3.7 25.3 87 -5.6 21.9
23:20 1022 30.18 851 25.13 -3.8 25.2 87 -5.6 21.8
23:25 1022 30.18 851 25.13 -3.9 25.1 88 -5.6 21.9
23:30 1022 30.18 851 25.13 -3.9 25 87 -5.7 21.8
23:35 1022 30.18 851 25.13 -4 24.8 88 -5.8 21.6
23:40 1022 30.18 851 25.13 -4.1 24.7 87 -5.9 21.4
23:45 1022 30.18 851 25.13 -4.1 24.6 87 -6 21.2
23:50 1022 30.18 851 25.13 -4.2 24.5 87 -6 21.1
23:55 1022 30.18 851 25.13 -4.1 24.5 86 -6.1 21
24:00 1022 30.18 851 25.13 -4.2 24.5 87 -6 21.2